Time,TemperatureF,DewpointF,PressureIn,WindDirection,WindDirectionDegrees,WindSpeedMPH,WindSpeedGustMPH,Humidity,HourlyPrecipIn,Conditions,Clouds,dailyrainin,SoftwareType,DateUTC
2013-03-18 06:35:00,0.1,-7.1,29.60,West,270,0.0,0.0,71,0.00,,,0.00,WUHU216HW,2013-03-18 14:35:00,
2013-03-18 06:41:00,0.0,-7.3,29.60,West,270,0.0,0.0,71,0.00,,,0.00,WUHU216HW,2013-03-18 14:41:00,
2013-03-18 06:46:00,-0.2,-7.5,29.60,West,270,0.0,0.0,71,0.00,,,0.00,WUHU216HW,2013-03-18 14:46:00,
2013-03-18 06:51:00,-0.5,-7.8,29.60,West,270,0.0,0.0,71,0.00,,,0.00,WUHU216HW,2013-03-18 14:51:00,
2013-03-18 06:56:00,-0.5,-7.8,29.60,West,270,0.0,0.0,71,0.00,,,0.00,WUHU216HW,2013-03-18 14:56:00,
2013-03-18 07:01:00,-0.7,-8.0,29.60,West,270,0.0,0.0,71,0.00,,,0.00,WUHU216HW,2013-03-18 15:01:00,
2013-03-18 07:06:00,-0.7,-8.0,29.60,West,270,0.0,0.0,71,0.00,,,0.00,WUHU216HW,2013-03-18 15:06:00,
2013-03-18 07:11:00,-1.1,-8.3,29.60,West,270,0.0,0.0,71,0.00,,,0.00,WUHU216HW,2013-03-18 15:11:00,
2013-03-18 07:16:00,-1.1,-8.3,29.60,West,270,0.0,0.0,71,0.00,,,0.00,WUHU216HW,2013-03-18 15:16:00,
2013-03-18 07:21:00,-1.3,-8.5,29.60,West,270,0.0,0.0,71,0.00,,,0.00,WUHU216HW,2013-03-18 15:21:00,
2013-03-18 07:26:00,-1.4,-8.6,29.60,West,270,0.0,0.0,71,0.00,,,0.00,WUHU216HW,2013-03-18 15:26:00,
2013-03-18 07:31:00,-1.4,-8.6,29.60,West,270,0.0,0.0,71,0.00,,,0.00,WUHU216HW,2013-03-18 15:31:00,
2013-03-18 07:36:00,-1.4,-8.5,29.60,West,270,0.0,0.0,71,0.00,,,0.00,WUHU216HW,2013-03-18 15:36:00,
2013-03-18 07:41:00,-1.6,-8.5,29.60,West,270,0.0,0.0,72,0.00,,,0.00,WUHU216HW,2013-03-18 15:41:00,
2013-03-18 07:46:00,-1.6,-8.5,29.60,West,270,0.0,0.0,72,0.00,,,0.00,WUHU216HW,2013-03-18 15:46:00,
2013-03-18 07:51:00,-1.6,-8.8,29.60,West,270,0.0,0.0,71,0.00,,,0.00,WUHU216HW,2013-03-18 15:51:00,
2013-03-18 07:56:00,-1.8,-8.9,29.60,West,270,0.0,0.0,71,0.00,,,0.00,WUHU216HW,2013-03-18 15:56:00,
2013-03-18 08:01:00,-2.0,-9.1,29.60,West,270,0.0,0.0,71,0.00,,,0.00,WUHU216HW,2013-03-18 16:01:00,
2013-03-18 08:06:00,-2.0,-9.1,29.60,West,270,0.0,0.0,71,0.00,,,0.00,WUHU216HW,2013-03-18 16:06:00,
2013-03-18 08:12:00,-2.0,-9.1,29.60,West,270,0.0,0.0,71,0.00,,,0.00,WUHU216HW,2013-03-18 16:12:00,
2013-03-18 08:17:00,-2.2,-9.3,29.60,West,270,0.0,0.0,71,0.00,,,0.00,WUHU216HW,2013-03-18 16:17:00,
2013-03-18 08:22:00,-2.2,-9.3,29.60,West,270,0.0,0.0,71,0.00,,,0.00,WUHU216HW,2013-03-18 16:22:00,
2013-03-18 08:27:00,-2.2,-9.3,29.59,West,270,0.0,0.0,71,0.00,,,0.00,WUHU216HW,2013-03-18 16:27:00,
2013-03-18 08:32:00,-2.0,-9.3,29.59,West,270,0.0,0.0,71,0.00,,,0.00,WUHU216HW,2013-03-18 16:32:00,
2013-03-18 08:37:00,-2.0,-9.1,29.59,West,270,0.0,0.0,71,0.00,,,0.00,WUHU216HW,2013-03-18 16:37:00,
2013-03-18 08:42:00,-1.6,-8.5,29.59,West,270,0.0,0.0,72,0.00,,,0.00,WUHU216HW,2013-03-18 16:42:00,
2013-03-18 08:47:00,-1.6,-8.5,29.60,West,270,0.0,0.0,72,0.00,,,0.00,WUHU216HW,2013-03-18 16:47:00,
2013-03-18 08:52:00,-1.6,-8.5,29.59,West,270,0.0,0.0,72,0.00,,,0.00,WUHU216HW,2013-03-18 16:52:00,
2013-03-18 08:57:00,-1.4,-8.3,29.59,West,270,0.0,0.0,72,0.00,,,0.00,WUHU216HW,2013-03-18 16:57:00,
2013-03-18 09:02:00,-1.4,-8.3,29.59,West,270,0.0,0.0,72,0.00,,,0.00,WUHU216HW,2013-03-18 17:02:00,
2013-03-18 09:07:00,-1.1,-8.0,29.59,West,270,0.0,0.0,72,0.00,,,0.00,WUHU216HW,2013-03-18 17:07:00,
2013-03-18 09:12:00,-1.1,-8.0,29.59,West,270,0.0,0.0,72,0.00,,,0.00,WUHU216HW,2013-03-18 17:12:00,
2013-03-18 09:17:00,-0.7,-7.7,29.59,West,270,0.0,0.0,72,0.00,,,0.00,WUHU216HW,2013-03-18 17:17:00,
2013-03-18 09:22:00,-0.5,-7.2,29.59,West,270,0.0,0.0,73,0.00,,,0.00,WUHU216HW,2013-03-18 17:22:00,
2013-03-18 09:27:00,-0.2,-6.9,29.59,West,270,0.0,0.0,73,0.00,,,0.00,WUHU216HW,2013-03-18 17:27:00,
2013-03-18 09:32:00,0.1,-6.4,29.58,West,270,0.0,0.0,73,0.00,,,0.00,WUHU216HW,2013-03-18 17:32:00,
2013-03-18 09:37:00,0.8,-5.6,29.58,West,270,0.0,0.0,74,0.00,,,0.00,WUHU216HW,2013-03-18 17:37:00,
2013-03-18 09:42:00,2.1,-4.3,29.58,West,270,0.0,0.0,74,0.00,,,0.00,WUHU216HW,2013-03-18 17:42:00,
2013-03-18 09:47:00,2.8,-3.3,29.58,West,270,0.0,0.0,75,0.00,,,0.00,WUHU216HW,2013-03-18 17:47:00,
2013-03-18 09:52:00,3.0,-3.1,29.58,West,270,0.0,0.0,75,0.00,,,0.00,WUHU216HW,2013-03-18 17:52:00,
2013-03-18 09:57:00,3.9,-2.3,29.58,West,270,0.0,0.0,75,0.00,,,0.00,WUHU216HW,2013-03-18 17:57:00,
2013-03-18 10:02:00,6.0,0.3,29.58,West,270,0.0,0.0,77,0.00,,,0.00,WUHU216HW,2013-03-18 18:02:00,
2013-03-18 10:07:00,7.5,1.7,29.58,West,270,0.0,0.0,77,0.00,,,0.00,WUHU216HW,2013-03-18 18:07:00,
2013-03-18 10:12:00,12.0,6.6,29.58,West,270,0.0,0.0,79,0.00,,,0.00,WUHU216HW,2013-03-18 18:12:00,
2013-03-18 10:17:00,14.3,8.1,29.58,West,270,0.0,0.0,76,0.00,,,0.00,WUHU216HW,2013-03-18 18:17:00,
2013-03-18 10:22:00,14.3,6.9,29.57,West,270,0.0,0.0,72,0.00,,,0.00,WUHU216HW,2013-03-18 18:22:00,
2013-03-18 10:27:00,13.6,5.7,29.57,West,270,0.0,0.0,70,0.00,,,0.00,WUHU216HW,2013-03-18 18:27:00,
2013-03-18 10:32:00,13.1,4.8,29.57,West,270,0.0,0.0,69,0.00,,,0.00,WUHU216HW,2013-03-18 18:32:00,
2013-03-18 10:37:00,12.9,4.6,29.57,West,270,0.0,0.0,69,0.00,,,0.00,WUHU216HW,2013-03-18 18:37:00,
2013-03-18 10:42:00,12.7,4.8,29.57,West,270,0.0,0.0,70,0.00,,,0.00,WUHU216HW,2013-03-18 18:42:00,
2013-03-18 10:47:00,12.9,5.0,29.57,NW,315,0.0,0.0,70,0.00,,,0.00,WUHU216HW,2013-03-18 18:47:00,
2013-03-18 10:52:00,13.4,5.8,29.57,NNW,338,0.0,0.0,71,0.00,,,0.00,WUHU216HW,2013-03-18 18:52:00,
2013-03-18 10:57:00,15.6,8.4,29.57,NNW,338,0.0,0.0,73,0.00,,,0.00,WUHU216HW,2013-03-18 18:57:00,
2013-03-18 11:02:00,16.7,9.1,29.57,NNW,338,0.0,0.0,72,0.00,,,0.00,WUHU216HW,2013-03-18 19:02:00,
2013-03-18 11:07:00,17.4,9.6,29.57,NNW,338,0.0,0.0,71,0.00,,,0.00,WUHU216HW,2013-03-18 19:07:00,
2013-03-18 11:13:00,18.3,10.1,29.56,NNE,23,0.0,0.0,70,0.00,,,0.00,WUHU216HW,2013-03-18 19:13:00,
2013-03-18 11:17:00,18.6,10.4,29.56,NE,45,0.0,0.0,70,0.00,,,0.00,WUHU216HW,2013-03-18 19:17:00,
2013-03-18 11:23:00,19.2,10.6,29.56,NE,45,0.8,0.8,69,0.00,,,0.00,WUHU216HW,2013-03-18 19:23:00,
2013-03-18 11:28:00,21.3,12.7,29.56,NE,45,0.0,0.8,69,0.00,,,0.00,WUHU216HW,2013-03-18 19:28:00,
2013-03-18 11:33:00,22.2,12.9,29.56,NE,45,0.0,0.0,67,0.00,,,0.00,WUHU216HW,2013-03-18 19:33:00,
2013-03-18 11:38:00,22.8,13.1,29.56,NE,45,0.0,0.0,66,0.00,,,0.00,WUHU216HW,2013-03-18 19:38:00,
2013-03-18 11:43:00,24.0,13.5,29.56,NE,45,0.0,1.1,64,0.00,,,0.00,WUHU216HW,2013-03-18 19:43:00,
2013-03-18 11:48:00,24.9,14.1,29.56,NE,45,0.0,1.1,63,0.00,,,0.00,WUHU216HW,2013-03-18 19:48:00,
2013-03-18 11:53:00,25.5,13.9,29.56,NE,45,0.0,0.0,61,0.00,,,0.00,WUHU216HW,2013-03-18 19:53:00,
2013-03-18 11:58:00,26.4,14.7,29.56,NE,45,0.0,0.0,61,0.00,,,0.00,WUHU216HW,2013-03-18 19:58:00,
2013-03-18 12:03:00,27.3,15.2,29.55,NE,45,0.0,0.0,60,0.00,,,0.00,WUHU216HW,2013-03-18 20:03:00,
2013-03-18 12:08:00,28.0,15.1,29.55,NE,45,0.0,0.0,58,0.00,,,0.00,WUHU216HW,2013-03-18 20:08:00,
2013-03-18 12:13:00,29.1,15.7,29.55,NE,45,0.0,0.0,57,0.00,,,0.00,WUHU216HW,2013-03-18 20:13:00,
2013-03-18 12:18:00,29.8,15.9,29.55,NE,45,0.0,0.0,56,0.00,,,0.00,WUHU216HW,2013-03-18 20:18:00,
2013-03-18 12:23:00,30.0,15.7,29.55,ENE,68,0.0,0.0,55,0.00,,,0.00,WUHU216HW,2013-03-18 20:23:00,
2013-03-18 12:28:00,31.4,16.6,29.55,NE,45,0.0,0.0,54,0.00,,,0.00,WUHU216HW,2013-03-18 20:28:00,
2013-03-18 12:33:00,32.7,17.8,29.55,NNE,23,0.0,0.0,54,0.00,,,0.00,WUHU216HW,2013-03-18 20:33:00,
2013-03-18 12:38:00,33.9,17.6,29.55,NE,45,0.0,0.2,51,0.00,,,0.00,WUHU216HW,2013-03-18 20:38:00,
2013-03-18 12:43:00,33.6,16.3,29.55,ENE,68,0.0,0.2,49,0.00,,,0.00,WUHU216HW,2013-03-18 20:43:00,
2013-03-18 12:48:00,34.3,16.7,29.55,North,0,0.0,0.0,49,0.00,,,0.00,WUHU216HW,2013-03-18 20:48:00,
2013-03-18 12:53:00,35.4,18.1,29.54,NE,45,0.0,0.0,49,0.00,,,0.00,WUHU216HW,2013-03-18 20:53:00,
2013-03-18 12:58:00,37.4,19.4,29.55,NNW,338,0.0,0.0,48,0.00,,,0.00,WUHU216HW,2013-03-18 20:58:00,
2013-03-18 13:03:00,38.4,19.3,29.55,ENE,68,0.0,0.0,46,0.00,,,0.00,WUHU216HW,2013-03-18 21:03:00,
2013-03-18 13:08:00,42.9,22.4,29.55,North,0,6.7,6.7,44,0.00,,,0.00,WUHU216HW,2013-03-18 21:08:00,
2013-03-18 13:13:00,45.1,23.3,29.55,NE,45,0.0,6.7,42,0.00,,,0.00,WUHU216HW,2013-03-18 21:13:00,
2013-03-18 13:18:00,48.0,24.8,29.55,ESE,113,0.0,6.7,40,0.00,,,0.00,WUHU216HW,2013-03-18 21:18:00,
2013-03-18 13:23:00,48.9,24.2,29.54,NNE,23,0.0,3.5,38,0.00,,,0.00,WUHU216HW,2013-03-18 21:23:00,
2013-03-18 13:28:00,49.6,24.9,29.54,NE,45,0.0,3.5,38,0.00,,,0.00,WUHU216HW,2013-03-18 21:28:00,
2013-03-18 13:33:00,50.1,24.8,29.54,North,0,0.0,2.0,37,0.00,,,0.00,WUHU216HW,2013-03-18 21:33:00,
2013-03-18 13:38:00,50.7,23.8,29.54,NE,45,2.4,2.4,35,0.00,,,0.00,WUHU216HW,2013-03-18 21:38:00,
2013-03-18 13:43:00,51.0,24.1,29.54,NE,45,0.0,2.4,35,0.00,,,0.00,WUHU216HW,2013-03-18 21:43:00,
2013-03-18 13:48:00,50.9,22.6,29.54,NNE,23,3.8,3.8,33,0.00,,,0.00,WUHU216HW,2013-03-18 21:48:00,
2013-03-18 13:53:00,51.0,24.1,29.53,WSW,248,0.0,3.8,35,0.00,,,0.00,WUHU216HW,2013-03-18 21:53:00,
2013-03-18 13:58:00,50.9,21.9,29.53,NE,45,0.0,5.8,32,0.00,,,0.00,WUHU216HW,2013-03-18 21:58:00,
2013-03-18 14:03:00,51.2,22.6,29.53,NE,45,0.0,5.8,32,0.00,,,0.00,WUHU216HW,2013-03-18 22:03:00,
2013-03-18 14:08:00,51.6,22.5,29.53,NNE,23,0.0,0.0,32,0.00,,,0.00,WUHU216HW,2013-03-18 22:08:00,
2013-03-18 14:13:00,52.3,23.2,29.53,North,0,1.1,1.1,32,0.00,,,0.00,WUHU216HW,2013-03-18 22:13:00,
2013-03-18 14:18:00,53.4,23.5,29.53,NNE,23,0.0,4.4,31,0.00,,,0.00,WUHU216HW,2013-03-18 22:18:00,
2013-03-18 14:23:00,53.4,23.5,29.53,NNE,23,0.0,4.4,31,0.00,,,0.00,WUHU216HW,2013-03-18 22:23:00,
2013-03-18 14:28:00,53.2,22.6,29.52,NE,45,0.0,0.0,30,0.00,,,0.00,WUHU216HW,2013-03-18 22:28:00,
2013-03-18 14:33:00,53.4,22.8,29.52,NNE,23,2.9,2.9,30,0.00,,,0.00,WUHU216HW,2013-03-18 22:33:00,
2013-03-18 14:38:00,53.2,22.6,29.52,NNE,23,1.1,2.9,30,0.00,,,0.00,WUHU216HW,2013-03-18 22:38:00,
2013-03-18 14:43:00,53.4,22.8,29.52,NE,45,3.5,3.5,30,0.00,,,0.00,WUHU216HW,2013-03-18 22:43:00,
2013-03-18 14:48:00,53.2,20.7,29.52,NNE,23,1.5,3.5,28,0.00,,,0.00,WUHU216HW,2013-03-18 22:48:00,
2013-03-18 14:54:00,51.6,19.3,29.52,NNW,338,0.0,6.7,28,0.00,,,0.00,WUHU216HW,2013-03-18 22:54:00,
2013-03-18 14:59:00,51.0,18.8,29.52,NNE,23,4.0,6.7,28,0.00,,,0.00,WUHU216HW,2013-03-18 22:59:00,
2013-03-18 15:04:00,49.8,17.7,29.52,NNE,23,6.4,6.4,28,0.00,,,0.00,WUHU216HW,2013-03-18 23:04:00,
2013-03-18 15:09:00,49.6,18.5,29.52,North,0,3.8,6.4,29,0.00,,,0.00,WUHU216HW,2013-03-18 23:09:00,
2013-03-18 15:14:00,47.8,16.1,29.52,NNE,23,0.0,6.4,28,0.00,,,0.00,WUHU216HW,2013-03-18 23:14:00,
2013-03-18 15:19:00,42.0,11.0,29.52,NNE,23,4.2,4.6,28,0.00,,,0.00,WUHU216HW,2013-03-18 23:19:00,
2013-03-18 15:24:00,39.3,10.5,29.52,NNE,23,0.0,4.6,30,0.00,,,0.00,WUHU216HW,2013-03-18 23:24:00,
2013-03-18 15:29:00,37.5,9.5,29.52,NE,45,0.0,4.2,31,0.00,,,0.00,WUHU216HW,2013-03-18 23:29:00,
2013-03-18 15:34:00,35.4,8.9,29.51,NNE,23,0.0,1.7,33,0.00,,,0.00,WUHU216HW,2013-03-18 23:34:00,
2013-03-18 15:39:00,34.3,8.0,29.52,NE,45,1.7,7.3,33,0.00,,,0.00,WUHU216HW,2013-03-18 23:39:00,
2013-03-18 15:44:00,33.8,8.2,29.51,NNE,23,5.5,7.3,34,0.00,,,0.00,WUHU216HW,2013-03-18 23:44:00,
2013-03-18 15:49:00,33.0,8.8,29.51,NE,45,0.0,5.5,36,0.00,,,0.00,WUHU216HW,2013-03-18 23:49:00,
2013-03-18 15:54:00,32.9,8.6,29.51,SSE,158,0.0,1.5,36,0.00,,,0.00,WUHU216HW,2013-03-18 23:54:00,
2013-03-18 15:59:00,32.9,8.6,29.51,NE,45,0.0,0.0,36,0.00,,,0.00,WUHU216HW,2013-03-18 23:59:00,
2013-03-18 16:04:00,32.5,8.3,29.51,NE,45,0.0,2.6,36,0.00,,,0.00,WUHU216HW,2013-03-19 00:04:00,
2013-03-18 16:09:00,32.3,8.8,29.51,NE,45,0.0,2.6,37,0.00,,,0.00,WUHU216HW,2013-03-19 00:09:00,
2013-03-18 16:14:00,32.1,8.6,29.50,SE,135,0.0,0.0,37,0.00,,,0.00,WUHU216HW,2013-03-19 00:14:00,
2013-03-18 16:19:00,32.0,9.1,29.51,NE,45,0.0,1.3,38,0.00,,,0.00,WUHU216HW,2013-03-19 00:19:00,
2013-03-18 16:24:00,31.8,8.9,29.51,NNE,23,8.2,8.2,38,0.00,,,0.00,WUHU216HW,2013-03-19 00:24:00,
2013-03-18 16:29:00,31.8,8.9,29.50,North,0,0.0,8.2,38,0.00,,,0.00,WUHU216HW,2013-03-19 00:29:00,
2013-03-18 16:34:00,31.8,8.9,29.51,North,0,0.0,0.0,38,0.00,,,0.00,WUHU216HW,2013-03-19 00:34:00,
2013-03-18 16:39:00,31.8,8.9,29.50,North,0,0.0,0.0,38,0.00,,,0.00,WUHU216HW,2013-03-19 00:39:00,
2013-03-18 16:44:00,31.6,8.8,29.50,North,0,0.0,1.5,38,0.00,,,0.00,WUHU216HW,2013-03-19 00:44:00,
2013-03-18 16:49:00,31.6,8.8,29.51,NNE,23,4.4,4.4,38,0.00,,,0.00,WUHU216HW,2013-03-19 00:49:00,
2013-03-18 16:54:00,31.6,9.4,29.51,NNE,23,0.0,4.4,39,0.00,,,0.00,WUHU216HW,2013-03-19 00:54:00,
2013-03-18 17:00:00,31.6,8.8,29.51,NE,45,0.0,0.0,38,0.00,,,0.00,WUHU216HW,2013-03-19 01:00:00,
2013-03-18 17:05:00,31.6,8.8,29.51,ENE,68,0.0,0.0,38,0.00,,,0.00,WUHU216HW,2013-03-19 01:05:00,
2013-03-18 17:10:00,31.6,9.4,29.51,NW,315,0.0,0.0,39,0.00,,,0.00,WUHU216HW,2013-03-19 01:10:00,
2013-03-18 17:15:00,31.4,9.2,29.51,North,0,0.0,0.0,39,0.00,,,0.00,WUHU216HW,2013-03-19 01:15:00,
2013-03-18 17:20:00,31.2,9.1,29.51,North,0,0.0,2.0,39,0.00,,,0.00,WUHU216HW,2013-03-19 01:20:00,
2013-03-18 17:25:00,31.2,9.1,29.50,North,0,7.3,7.3,39,0.00,,,0.00,WUHU216HW,2013-03-19 01:25:00,
2013-03-18 17:30:00,30.9,9.4,29.50,North,0,5.3,7.3,40,0.00,,,0.00,WUHU216HW,2013-03-19 01:30:00,
2013-03-18 17:35:00,30.7,9.2,29.50,NNE,23,0.0,5.3,40,0.00,,,0.00,WUHU216HW,2013-03-19 01:35:00,
2013-03-18 17:40:00,30.7,9.2,29.50,WNW,293,0.0,5.3,40,0.00,,,0.00,WUHU216HW,2013-03-19 01:40:00,
2013-03-18 17:45:00,30.5,9.1,29.50,WNW,293,0.0,1.5,40,0.00,,,0.00,WUHU216HW,2013-03-19 01:45:00,
2013-03-18 17:50:00,30.5,9.1,29.50,WNW,293,0.0,0.8,40,0.00,,,0.00,WUHU216HW,2013-03-19 01:50:00,
2013-03-18 17:55:00,30.3,9.4,29.50,North,0,0.0,0.8,41,0.00,,,0.00,WUHU216HW,2013-03-19 01:55:00,
2013-03-18 18:00:00,30.2,9.2,29.50,North,0,0.0,2.2,41,0.00,,,0.00,WUHU216HW,2013-03-19 02:00:00,
2013-03-18 18:05:00,30.0,9.1,29.50,WNW,293,3.1,3.5,41,0.00,,,0.00,WUHU216HW,2013-03-19 02:05:00,
2013-03-18 18:10:00,30.0,9.1,29.50,NW,315,2.9,3.5,41,0.00,,,0.00,WUHU216HW,2013-03-19 02:10:00,
2013-03-18 18:15:00,29.8,8.9,29.50,WNW,293,0.0,2.9,41,0.00,,,0.00,WUHU216HW,2013-03-19 02:15:00,
2013-03-18 18:20:00,29.8,9.4,29.50,NW,315,0.0,0.0,42,0.00,,,0.00,WUHU216HW,2013-03-19 02:20:00,
2013-03-18 18:25:00,29.6,9.3,29.50,North,0,2.0,2.0,42,0.00,,,0.00,WUHU216HW,2013-03-19 02:25:00,
2013-03-18 18:30:00,29.4,9.1,29.49,North,0,0.0,2.0,42,0.00,,,0.00,WUHU216HW,2013-03-19 02:30:00,
2013-03-18 18:35:00,29.3,9.4,29.49,NNW,338,0.0,2.0,43,0.00,,,0.00,WUHU216HW,2013-03-19 02:35:00,
2013-03-18 18:40:00,29.1,9.3,29.49,WNW,293,3.8,3.8,43,0.00,,,0.00,WUHU216HW,2013-03-19 02:40:00,
2013-03-18 18:45:00,28.9,9.1,29.49,NNW,338,0.0,3.8,43,0.00,,,0.00,WUHU216HW,2013-03-19 02:45:00,
2013-03-18 18:50:00,28.7,8.9,29.50,NW,315,0.0,3.8,43,0.00,,,0.00,WUHU216HW,2013-03-19 02:50:00,
2013-03-18 18:55:00,28.5,8.8,29.49,NW,315,0.0,2.4,43,0.00,,,0.00,WUHU216HW,2013-03-19 02:55:00,
2013-03-18 19:00:00,28.2,8.9,29.50,North,0,3.3,3.3,44,0.00,,,0.00,WUHU216HW,2013-03-19 03:00:00,
2013-03-18 19:05:00,28.2,8.9,29.50,North,0,0.6,3.3,44,0.00,,,0.00,WUHU216HW,2013-03-19 03:05:00,
2013-03-18 19:10:00,28.0,8.8,29.49,NNW,338,0.0,0.6,44,0.00,,,0.00,WUHU216HW,2013-03-19 03:10:00,
2013-03-18 19:15:00,27.8,8.6,29.49,NW,315,0.0,0.6,44,0.00,,,0.00,WUHU216HW,2013-03-19 03:15:00,
2013-03-18 19:21:00,27.6,8.4,29.50,NW,315,0.0,0.0,44,0.00,,,0.00,WUHU216HW,2013-03-19 03:21:00,
2013-03-18 19:26:00,27.5,8.3,29.49,NNW,338,0.0,0.0,44,0.00,,,0.00,WUHU216HW,2013-03-19 03:26:00,
2013-03-18 19:30:00,27.1,7.9,29.50,NW,315,0.0,0.0,44,0.00,,,0.00,WUHU216HW,2013-03-19 03:30:00,
2013-03-18 19:35:00,26.9,8.3,29.50,NNW,338,0.0,0.0,45,0.00,,,0.00,WUHU216HW,2013-03-19 03:35:00,
2013-03-18 19:40:00,26.7,8.1,29.50,NW,315,0.0,0.0,45,0.00,,,0.00,WUHU216HW,2013-03-19 03:40:00,
2013-03-18 19:46:00,26.4,7.3,29.50,NW,315,0.0,0.0,44,0.00,,,0.00,WUHU216HW,2013-03-19 03:46:00,
2013-03-18 19:51:00,26.0,7.4,29.49,NNW,338,0.0,0.0,45,0.00,,,0.00,WUHU216HW,2013-03-19 03:51:00,
2013-03-18 19:56:00,25.5,6.9,29.49,NNW,338,0.0,0.0,45,0.00,,,0.00,WUHU216HW,2013-03-19 03:56:00,
2013-03-18 20:01:00,24.9,6.9,29.49,NNW,338,0.0,0.0,46,0.00,,,0.00,WUHU216HW,2013-03-19 04:01:00,
2013-03-18 20:02:00,24.9,6.9,29.49,NNW,338,0.0,0.0,46,0.00,,,0.00,WUHU216HW,2013-03-19 04:02:00,
2013-03-18 20:03:00,24.9,6.9,29.49,NNW,338,0.0,0.0,46,0.00,,,0.00,WUHU216HW,2013-03-19 04:03:00,
2013-03-18 20:08:00,24.6,7.1,29.49,WSW,248,0.0,0.0,47,0.00,,,0.00,WUHU216HW,2013-03-19 04:08:00,
2013-03-18 20:13:00,24.2,6.8,29.49,WSW,248,0.0,0.0,47,0.00,,,0.00,WUHU216HW,2013-03-19 04:13:00,
2013-03-18 20:18:00,23.9,6.9,29.49,West,270,0.0,0.0,48,0.00,,,0.00,WUHU216HW,2013-03-19 04:18:00,
2013-03-18 20:23:00,23.5,6.6,29.50,West,270,0.0,0.0,48,0.00,,,0.00,WUHU216HW,2013-03-19 04:23:00,
2013-03-18 20:28:00,23.3,6.9,29.50,West,270,0.0,0.0,49,0.00,,,0.00,WUHU216HW,2013-03-19 04:28:00,
2013-03-18 20:33:00,22.8,6.4,29.50,West,270,0.0,0.0,49,0.00,,,0.00,WUHU216HW,2013-03-19 04:33:00,
2013-03-18 20:38:00,22.4,6.4,29.49,West,270,0.0,0.0,49,0.00,,,0.00,WUHU216HW,2013-03-19 04:38:00,
2013-03-18 20:43:00,21.9,6.0,29.50,West,270,0.0,0.0,50,0.00,,,0.00,WUHU216HW,2013-03-19 04:43:00,
2013-03-18 20:48:00,21.7,6.2,29.50,West,270,0.0,0.0,51,0.00,,,0.00,WUHU216HW,2013-03-19 04:48:00,
2013-03-18 20:53:00,21.3,5.9,29.50,West,270,0.0,0.0,51,0.00,,,0.00,WUHU216HW,2013-03-19 04:53:00,
2013-03-18 20:58:00,21.0,6.0,29.50,West,270,0.0,0.0,52,0.00,,,0.00,WUHU216HW,2013-03-19 04:58:00,
2013-03-18 21:03:00,20.8,5.8,29.50,West,270,0.0,0.0,52,0.00,,,0.00,WUHU216HW,2013-03-19 05:03:00,
2013-03-18 21:08:00,20.4,5.5,29.50,West,270,0.0,0.0,52,0.00,,,0.00,WUHU216HW,2013-03-19 05:08:00,
2013-03-18 21:13:00,19.9,5.4,29.50,West,270,0.0,0.0,53,0.00,,,0.00,WUHU216HW,2013-03-19 05:13:00,
2013-03-18 21:18:00,19.5,5.4,29.50,West,270,0.0,0.0,54,0.00,,,0.00,WUHU216HW,2013-03-19 05:18:00,
2013-03-18 21:23:00,19.2,5.1,29.50,West,270,0.0,0.0,54,0.00,,,0.00,WUHU216HW,2013-03-19 05:23:00,
2013-03-18 21:28:00,18.6,5.0,29.50,West,270,0.0,0.0,55,0.00,,,0.00,WUHU216HW,2013-03-19 05:28:00,
2013-03-18 21:33:00,18.3,4.7,29.50,West,270,0.0,0.0,55,0.00,,,0.00,WUHU216HW,2013-03-19 05:33:00,
2013-03-18 21:38:00,17.7,4.2,29.50,West,270,0.0,0.0,55,0.00,,,0.00,WUHU216HW,2013-03-19 05:38:00,
2013-03-18 21:43:00,17.4,3.9,29.50,West,270,0.0,0.0,55,0.00,,,0.00,WUHU216HW,2013-03-19 05:43:00,
2013-03-18 21:48:00,16.8,3.7,29.50,West,270,0.0,0.0,56,0.00,,,0.00,WUHU216HW,2013-03-19 05:48:00,
2013-03-18 21:53:00,16.5,3.4,29.50,West,270,0.0,0.0,56,0.00,,,0.00,WUHU216HW,2013-03-19 05:53:00,
2013-03-18 21:58:00,16.3,3.2,29.50,West,270,0.0,0.0,56,0.00,,,0.00,WUHU216HW,2013-03-19 05:58:00,
2013-03-18 22:03:00,15.9,3.3,29.50,West,270,0.0,0.0,57,0.00,,,0.00,WUHU216HW,2013-03-19 06:03:00,
2013-03-18 22:08:00,15.6,2.9,29.50,West,270,0.0,0.0,57,0.00,,,0.00,WUHU216HW,2013-03-19 06:08:00,
2013-03-18 22:13:00,15.4,2.8,29.50,West,270,0.0,0.0,57,0.00,,,0.00,WUHU216HW,2013-03-19 06:13:00,
2013-03-18 22:18:00,15.0,2.4,29.50,West,270,0.0,0.0,57,0.00,,,0.00,WUHU216HW,2013-03-19 06:18:00,
2013-03-18 22:23:00,14.7,2.5,29.50,West,270,0.0,0.0,58,0.00,,,0.00,WUHU216HW,2013-03-19 06:23:00,
2013-03-18 22:28:00,14.1,2.0,29.50,West,270,0.0,0.0,58,0.00,,,0.00,WUHU216HW,2013-03-19 06:28:00,
2013-03-18 22:33:00,14.0,2.2,29.50,West,270,0.0,0.0,59,0.00,,,0.00,WUHU216HW,2013-03-19 06:33:00,
2013-03-18 22:38:00,13.6,1.5,29.50,West,270,0.0,0.0,58,0.00,,,0.00,WUHU216HW,2013-03-19 06:38:00,
2013-03-18 22:43:00,13.2,1.1,29.51,West,270,0.0,0.0,58,0.00,,,0.00,WUHU216HW,2013-03-19 06:43:00,
2013-03-18 22:48:00,12.7,0.6,29.51,West,270,0.0,0.0,58,0.00,,,0.00,WUHU216HW,2013-03-19 06:48:00,
2013-03-18 22:53:00,12.5,0.8,29.51,West,270,0.0,0.0,59,0.00,,,0.00,WUHU216HW,2013-03-19 06:53:00,
2013-03-18 22:58:00,12.3,1.0,29.51,West,270,0.0,0.0,60,0.00,,,0.00,WUHU216HW,2013-03-19 06:58:00,
2013-03-18 23:03:00,12.0,0.6,29.51,West,270,0.0,0.0,60,0.00,,,0.00,WUHU216HW,2013-03-19 07:03:00,
2013-03-18 23:08:00,11.6,0.3,29.51,West,270,0.0,0.0,60,0.00,,,0.00,WUHU216HW,2013-03-19 07:08:00,
2013-03-18 23:13:00,11.3,0.0,29.51,West,270,0.0,0.0,60,0.00,,,0.00,WUHU216HW,2013-03-19 07:13:00,
2013-03-18 23:18:00,10.9,-0.2,29.51,West,270,0.0,0.0,60,0.00,,,0.00,WUHU216HW,2013-03-19 07:18:00,
2013-03-18 23:23:00,10.5,-0.2,29.51,WSW,248,0.0,0.0,61,0.00,,,0.00,WUHU216HW,2013-03-19 07:23:00,
2013-03-18 23:28:00,10.5,-0.2,29.51,WSW,248,0.0,0.0,61,0.00,,,0.00,WUHU216HW,2013-03-19 07:28:00,
2013-03-18 23:33:00,10.4,-0.4,29.51,SSW,203,0.0,0.0,61,0.00,,,0.00,WUHU216HW,2013-03-19 07:33:00,
2013-03-18 23:38:00,10.2,-0.2,29.51,South,180,0.0,0.0,62,0.00,,,0.00,WUHU216HW,2013-03-19 07:38:00,
2013-03-18 23:43:00,10.2,-0.2,29.51,South,180,0.0,0.0,62,0.00,,,0.00,WUHU216HW,2013-03-19 07:43:00,
2013-03-18 23:48:00,10.2,-0.2,29.51,South,180,0.0,0.0,62,0.00,,,0.00,WUHU216HW,2013-03-19 07:48:00,
2013-03-18 23:53:00,10.0,-0.4,29.51,South,180,0.0,0.0,62,0.00,,,0.00,WUHU216HW,2013-03-19 07:53:00,
2013-03-18 23:58:00,9.6,-0.8,29.51,South,180,0.0,0.0,62,0.00,,,0.00,WUHU216HW,2013-03-19 07:58:00,